createdAt,value
2018-08-19T00:00:49.907Z,18.30
2018-08-19T00:03:18.859Z,18.20
2018-08-19T00:05:47.385Z,18.20
2018-08-19T00:08:15.974Z,18.10
2018-08-19T00:11:01.554Z,18.00
2018-08-19T00:13:30.145Z,18.20
2018-08-19T00:15:58.718Z,18.10
2018-08-19T00:18:27.289Z,18.10
2018-08-19T00:20:56.015Z,18.10
2018-08-19T00:23:24.568Z,18.10
2018-08-19T00:25:53.129Z,18.10
2018-08-19T00:28:21.953Z,18.00
2018-08-19T00:30:50.509Z,18.00
2018-08-19T00:33:19.052Z,18.00
2018-08-19T00:35:47.618Z,18.00
2018-08-19T00:38:16.592Z,17.90
2018-08-19T00:40:45.502Z,17.90
2018-08-19T00:43:14.039Z,17.90
2018-08-19T00:45:42.621Z,17.90
2018-08-19T00:48:12.765Z,17.80
2018-08-19T00:50:41.620Z,17.90
2018-08-19T00:53:10.980Z,17.80
2018-08-19T00:55:44.849Z,17.80
2018-08-19T00:58:20.293Z,17.90
2018-08-19T01:00:48.861Z,17.80
2018-08-19T01:03:17.421Z,17.80
2018-08-19T01:05:45.965Z,17.80
2018-08-19T01:08:15.133Z,17.80
2018-08-19T01:10:43.826Z,17.80
2018-08-19T01:13:13.281Z,17.80
2018-08-19T01:15:41.861Z,17.80
2018-08-19T01:18:10.410Z,17.80
2018-08-19T01:20:38.978Z,17.80
2018-08-19T01:23:07.513Z,17.70
2018-08-19T01:25:36.098Z,17.60
2018-08-19T01:28:04.697Z,17.70
2018-08-19T01:30:33.297Z,17.70
2018-08-19T01:33:01.840Z,17.60
2018-08-19T01:35:37.643Z,17.60
2018-08-19T01:38:07.217Z,17.60
2018-08-19T01:40:36.040Z,17.60
2018-08-19T01:43:06.249Z,17.60
2018-08-19T01:45:35.175Z,17.50
2018-08-19T01:48:03.789Z,17.50
2018-08-19T01:50:32.307Z,17.50
2018-08-19T01:53:00.891Z,17.50
2018-08-19T01:55:31.004Z,17.50
2018-08-19T01:57:59.589Z,17.40
2018-08-19T02:00:28.170Z,17.30
2018-08-19T02:03:01.792Z,17.30
2018-08-19T02:05:30.511Z,17.30
2018-08-19T02:08:00.763Z,17.30
2018-08-19T02:10:30.382Z,17.10
2018-08-19T02:12:59.318Z,17.10
2018-08-19T02:15:28.952Z,17.10
2018-08-19T02:18:01.632Z,17.10
2018-08-19T02:20:32.602Z,17.20
2018-08-19T02:23:07.314Z,17.10
2018-08-19T02:25:44.591Z,17.10
2018-08-19T02:28:13.823Z,17.20
2018-08-19T02:30:54.165Z,17.20
2018-08-19T02:33:23.769Z,17.10
2018-08-19T02:36:00.714Z,17.10
2018-08-19T02:38:29.228Z,17.10
2018-08-19T02:40:57.797Z,17.10
2018-08-19T02:43:26.369Z,17.10
2018-08-19T02:45:54.965Z,17.10
2018-08-19T02:48:41.075Z,17.10
2018-08-19T02:51:11.070Z,17.00
2018-08-19T02:53:39.892Z,16.90
2018-08-19T02:56:08.502Z,17.00
2018-08-19T02:58:37.111Z,17.00
2018-08-19T03:01:05.761Z,17.00
2018-08-19T03:03:34.291Z,16.90
2018-08-19T03:06:03.439Z,16.90
2018-08-19T03:08:32.689Z,16.90
2018-08-19T03:11:01.260Z,16.80
2018-08-19T03:13:29.807Z,16.90
2018-08-19T03:15:58.341Z,16.80
2018-08-19T03:18:26.877Z,16.80
2018-08-19T03:20:55.423Z,16.80
2018-08-19T03:23:23.976Z,16.80
2018-08-19T03:25:52.514Z,16.80
2018-08-19T03:28:21.081Z,16.70
2018-08-19T03:31:04.074Z,16.70
2018-08-19T03:33:32.612Z,16.70
2018-08-19T03:36:01.173Z,16.60
2018-08-19T03:38:29.764Z,16.60
2018-08-19T03:40:58.350Z,16.60
2018-08-19T03:43:26.905Z,16.60
2018-08-19T03:45:55.453Z,16.60
2018-08-19T03:48:23.965Z,16.50
2018-08-19T03:50:52.508Z,16.50
2018-08-19T03:53:21.041Z,16.50
2018-08-19T03:55:49.608Z,16.50
2018-08-19T03:58:18.176Z,16.50
2018-08-19T04:00:46.745Z,16.40
2018-08-19T04:03:21.042Z,16.40
2018-08-19T04:05:53.191Z,16.40
2018-08-19T04:08:22.229Z,16.30
2018-08-19T04:10:51.001Z,16.30
2018-08-19T04:13:28.316Z,16.20
2018-08-19T04:15:59.292Z,16.20
2018-08-19T04:18:43.726Z,16.20
2018-08-19T04:21:16.618Z,16.20
2018-08-19T04:23:47.682Z,16.10
2018-08-19T04:26:16.454Z,16.10
2018-08-19T04:28:45.970Z,16.10
2018-08-19T04:31:20.070Z,16.10
2018-08-19T04:33:49.550Z,16.10
2018-08-19T04:36:20.105Z,16.10
2018-08-19T04:38:48.876Z,16.00
2018-08-19T04:41:17.701Z,16.10
2018-08-19T04:43:47.266Z,16.10
2018-08-19T04:46:16.064Z,16.10
2018-08-19T04:48:46.085Z,16.10
2018-08-19T04:51:14.966Z,16.10
2018-08-19T04:53:43.617Z,16.10
2018-08-19T04:56:12.462Z,16.10
2018-08-19T04:58:41.077Z,16.20
2018-08-19T05:01:09.915Z,16.20
2018-08-19T05:03:38.518Z,16.20
2018-08-19T05:06:07.273Z,16.20
2018-08-19T05:08:36.092Z,16.20
2018-08-19T05:11:04.714Z,16.30
2018-08-19T05:13:33.418Z,16.40
2018-08-19T05:16:02.329Z,16.40
2018-08-19T05:18:31.404Z,16.40
2018-08-19T05:21:06.000Z,16.40
2018-08-19T05:23:34.673Z,16.40
2018-08-19T05:26:03.301Z,16.40
2018-08-19T05:28:32.121Z,16.50
2018-08-19T05:31:00.914Z,16.60
2018-08-19T05:33:29.755Z,16.60
2018-08-19T05:35:58.398Z,16.70
2018-08-19T05:38:28.566Z,16.70
2018-08-19T05:41:01.492Z,16.80
2018-08-19T05:43:30.827Z,16.80
2018-08-19T05:48:43.158Z,16.90
2018-08-19T05:51:11.785Z,16.90
2018-08-19T05:53:44.649Z,17.00
2018-08-19T05:56:13.784Z,17.10
2018-08-19T05:58:43.043Z,17.20
2018-08-19T06:01:15.283Z,17.30
2018-08-19T06:03:43.892Z,17.30
2018-08-19T06:06:12.611Z,17.40
2018-08-19T06:08:42.446Z,17.50
2018-08-19T06:11:11.158Z,17.60
2018-08-19T06:13:39.971Z,17.70
2018-08-19T06:16:08.714Z,17.80
2018-08-19T06:18:37.548Z,17.90
2018-08-19T06:21:08.232Z,18.00
2018-08-19T06:23:37.088Z,18.10
2018-08-19T06:26:09.402Z,18.20
2018-08-19T06:28:39.273Z,18.30
2018-08-19T06:31:10.146Z,18.40
2018-08-19T06:33:39.012Z,18.50
2018-08-19T06:36:08.792Z,18.60
2018-08-19T06:38:37.734Z,18.70
2018-08-19T06:41:06.841Z,18.80
2018-08-19T06:43:35.511Z,18.90
2018-08-19T06:46:04.376Z,19.00
2018-08-19T06:48:33.056Z,19.10
2018-08-19T06:51:01.809Z,19.20
2018-08-19T06:53:30.523Z,19.40
2018-08-19T06:55:59.174Z,19.50
2018-08-19T06:58:27.762Z,19.60
2018-08-19T07:00:56.380Z,19.70
2018-08-19T07:03:25.180Z,19.80
2018-08-19T07:06:06.599Z,20.00
2018-08-19T07:08:35.295Z,20.10
2018-08-19T07:11:03.952Z,20.10
2018-08-19T07:13:33.369Z,20.40
2018-08-19T07:16:01.982Z,20.50
2018-08-19T07:18:30.572Z,20.60
2018-08-19T07:20:59.246Z,20.80
2018-08-19T07:23:27.930Z,21.00
2018-08-19T07:25:56.705Z,21.10
2018-08-19T07:28:25.728Z,21.30
2018-08-19T07:30:55.413Z,21.50
2018-08-19T07:33:24.042Z,21.90
2018-08-19T07:35:55.059Z,22.50
2018-08-19T07:38:23.876Z,23.10
2018-08-19T07:40:52.492Z,24.10
2018-08-19T07:43:21.394Z,25.00
2018-08-19T07:45:50.057Z,26.20
2018-08-19T07:48:19.267Z,27.30
2018-08-19T07:50:47.970Z,28.30
2018-08-19T07:53:17.229Z,29.60
2018-08-19T07:55:45.825Z,30.40
2018-08-19T07:58:17.725Z,30.90
2018-08-19T08:00:46.658Z,31.60
2018-08-19T08:03:15.254Z,31.70
2018-08-19T08:05:46.997Z,32.70
2018-08-19T08:08:15.629Z,33.70
2018-08-19T08:10:44.241Z,34.30
2018-08-19T08:13:14.807Z,33.50
2018-08-19T08:15:49.734Z,32.90
2018-08-19T08:18:18.466Z,34.30
2018-08-19T08:20:50.865Z,35.20
2018-08-19T08:23:21.992Z,35.40
2018-08-19T08:25:50.603Z,36.00
2018-08-19T08:28:21.277Z,36.40
2018-08-19T08:30:49.902Z,35.60
2018-08-19T08:33:18.580Z,36.90
2018-08-19T08:36:02.618Z,37.40
2018-08-19T08:38:31.620Z,37.60
2018-08-19T08:41:00.336Z,38.00
2018-08-19T08:43:28.978Z,38.20
2018-08-19T08:45:58.564Z,38.50
2018-08-19T08:48:28.075Z,38.90
2018-08-19T08:50:57.253Z,38.70
2018-08-19T08:53:28.985Z,38.70
2018-08-19T08:55:57.606Z,38.70
2018-08-19T08:58:26.269Z,38.10
2018-08-19T09:00:55.101Z,38.20
2018-08-19T09:03:23.766Z,37.80
2018-08-19T09:05:52.524Z,37.10
2018-08-19T09:08:21.230Z,38.20
2018-08-19T09:10:50.085Z,38.30
2018-08-19T09:13:19.209Z,38.10
2018-08-19T09:15:49.671Z,37.00
2018-08-19T09:18:18.385Z,37.90
2018-08-19T09:20:47.327Z,38.60
2018-08-19T09:23:16.386Z,37.90
2018-08-19T09:25:45.306Z,36.90
2018-08-19T09:28:14.125Z,37.70
2018-08-19T09:30:44.555Z,38.50
2018-08-19T09:33:13.909Z,39.00
2018-08-19T09:35:43.493Z,39.10
2018-08-19T09:38:23.639Z,39.20
2018-08-19T09:40:52.956Z,39.10
2018-08-19T09:43:22.494Z,39.20
2018-08-19T09:45:51.118Z,38.80
2018-08-19T09:48:19.885Z,39.30
2018-08-19T09:50:48.593Z,39.30
2018-08-19T09:53:17.105Z,39.10
2018-08-19T09:55:52.584Z,39.00
2018-08-19T09:58:22.277Z,38.90
2018-08-19T10:00:56.156Z,38.60
2018-08-19T10:03:24.834Z,38.70
2018-08-19T10:05:53.559Z,38.30
2018-08-19T10:08:22.851Z,38.20
2018-08-19T10:10:52.149Z,38.00
2018-08-19T10:13:20.737Z,38.20
2018-08-19T10:15:49.338Z,37.70
2018-08-19T10:18:18.513Z,38.20
2018-08-19T10:20:47.802Z,38.00
2018-08-19T10:23:16.440Z,37.90
2018-08-19T10:25:45.141Z,38.10
2018-08-19T10:28:13.693Z,37.70
2018-08-19T10:30:49.191Z,37.70
2018-08-19T10:33:20.263Z,37.90
2018-08-19T10:35:49.795Z,36.50
2018-08-19T10:38:19.548Z,36.20
2018-08-19T10:40:57.100Z,36.40
2018-08-19T10:43:31.860Z,36.80
2018-08-19T10:46:00.405Z,37.20
2018-08-19T10:48:28.914Z,36.80
2018-08-19T10:50:57.554Z,35.60
2018-08-19T10:53:27.855Z,36.60
2018-08-19T10:56:00.486Z,36.70
2018-08-19T10:58:29.118Z,37.00
2018-08-19T11:00:57.709Z,36.80
2018-08-19T11:03:27.120Z,36.20
2018-08-19T11:05:56.696Z,35.90
2018-08-19T11:08:26.138Z,35.60
2018-08-19T11:10:54.973Z,35.20
2018-08-19T11:13:24.930Z,35.20
2018-08-19T11:15:58.617Z,34.40
2018-08-19T11:18:29.861Z,34.50
2018-08-19T11:22:06.834Z,34.50
2018-08-19T11:24:45.109Z,34.70
2018-08-19T11:27:14.588Z,34.80
2018-08-19T11:29:43.347Z,35.50
2018-08-19T11:32:17.160Z,35.80
2018-08-19T11:34:49.457Z,35.80
2018-08-19T11:37:18.686Z,35.80
2018-08-19T11:39:47.236Z,35.30
2018-08-19T11:42:16.318Z,34.50
2018-08-19T11:44:45.200Z,34.30
2018-08-19T11:47:13.864Z,34.50
2018-08-19T11:49:42.640Z,34.20
2018-08-19T11:52:11.615Z,34.60
2018-08-19T11:54:41.102Z,34.60
2018-08-19T11:57:11.990Z,33.70
2018-08-19T11:59:44.189Z,33.90
2018-08-19T12:02:15.169Z,34.00
2018-08-19T12:04:44.201Z,34.50
2018-08-19T12:07:13.006Z,34.70
2018-08-19T12:09:45.223Z,34.40
2018-08-19T12:12:13.835Z,34.90
2018-08-19T12:14:42.398Z,35.40
2018-08-19T12:17:12.150Z,35.70
2018-08-19T12:19:42.385Z,35.60
2018-08-19T12:22:11.183Z,36.20
2018-08-19T12:24:41.912Z,35.20
2018-08-19T12:27:12.265Z,35.70
2018-08-19T12:29:41.904Z,35.70
2018-08-19T12:32:18.694Z,34.20
2018-08-19T12:34:48.593Z,34.90
2018-08-19T12:37:18.600Z,35.30
2018-08-19T12:39:47.430Z,35.20
2018-08-19T12:42:17.117Z,34.60
2018-08-19T12:44:54.245Z,33.50
2018-08-19T12:47:25.813Z,33.50
2018-08-19T12:50:00.616Z,34.00
2018-08-19T12:52:30.789Z,34.30
2018-08-19T12:55:05.078Z,34.80
2018-08-19T12:57:34.418Z,34.40
2018-08-19T13:00:11.299Z,34.30
2018-08-19T13:02:43.160Z,34.90
2018-08-19T13:05:12.672Z,35.00
2018-08-19T13:07:41.396Z,35.10
2018-08-19T13:10:09.957Z,35.20
2018-08-19T13:13:09.434Z,35.40
2018-08-19T13:15:38.037Z,35.70
2018-08-19T13:18:06.917Z,35.40
2018-08-19T13:20:35.552Z,35.40
2018-08-19T13:23:05.101Z,35.50
2018-08-19T13:25:34.273Z,35.90
2018-08-19T13:28:03.097Z,34.80
2018-08-19T13:30:32.892Z,34.90
2018-08-19T13:33:03.826Z,34.80
2018-08-19T13:35:32.640Z,34.20
2018-08-19T13:38:01.245Z,34.10
2018-08-19T13:40:29.806Z,34.40
2018-08-19T13:42:58.532Z,34.80
2018-08-19T13:45:27.362Z,35.10
2018-08-19T13:47:56.818Z,35.20
2018-08-19T13:50:26.194Z,35.10
2018-08-19T13:52:55.597Z,35.20
2018-08-19T13:55:24.231Z,35.50
2018-08-19T13:57:53.626Z,35.40
2018-08-19T14:00:23.905Z,35.30
2018-08-19T14:02:52.957Z,35.30
2018-08-19T14:05:21.604Z,35.30
2018-08-19T14:07:50.371Z,35.30
2018-08-19T14:10:19.074Z,34.90
2018-08-19T14:12:48.422Z,35.30
2018-08-19T14:15:17.010Z,35.40
2018-08-19T14:17:45.622Z,35.30
2018-08-19T14:20:14.205Z,35.30
2018-08-19T14:22:43.592Z,35.30
2018-08-19T14:25:12.581Z,35.50
2018-08-19T14:27:44.735Z,35.40
2018-08-19T14:30:15.701Z,35.00
2018-08-19T14:32:46.392Z,35.10
2018-08-19T14:35:15.074Z,35.20
2018-08-19T14:37:44.830Z,34.60
2018-08-19T14:40:19.036Z,35.00
2018-08-19T14:42:47.921Z,35.00
2018-08-19T14:45:21.747Z,35.20
2018-08-19T14:47:50.679Z,35.50
2018-08-19T14:50:20.475Z,35.60
2018-08-19T14:52:49.439Z,35.50
2018-08-19T14:55:18.265Z,35.20
2018-08-19T14:57:49.018Z,35.10
2018-08-19T15:00:19.621Z,35.10
2018-08-19T15:02:49.022Z,34.90
2018-08-19T15:05:20.521Z,34.30
2018-08-19T15:07:51.279Z,34.50
2018-08-19T15:10:24.866Z,34.50
2018-08-19T15:12:56.714Z,34.60
2018-08-19T15:15:25.845Z,34.60
2018-08-19T15:17:59.848Z,34.40
2018-08-19T15:20:39.872Z,34.70
2018-08-19T15:23:15.213Z,34.70
2018-08-19T15:25:50.252Z,35.00
2018-08-19T15:28:19.261Z,34.70
2018-08-19T15:30:49.442Z,34.50
2018-08-19T15:33:19.405Z,34.40
2018-08-19T15:35:48.645Z,34.10
2018-08-19T15:38:21.790Z,33.90
2018-08-19T15:40:50.738Z,33.90
2018-08-19T15:43:20.713Z,33.90
2018-08-19T15:45:49.487Z,33.80
2018-08-19T15:48:18.618Z,33.50
2018-08-19T15:50:47.191Z,33.80
2018-08-19T15:53:18.001Z,33.80
2018-08-19T15:55:48.710Z,33.40
2018-08-19T15:58:17.438Z,33.50
2018-08-19T16:00:47.100Z,33.00
2018-08-19T16:03:16.380Z,32.90
2018-08-19T16:05:46.034Z,33.20
2018-08-19T16:08:15.195Z,33.10
2018-08-19T16:10:45.267Z,33.10
2018-08-19T16:13:13.810Z,33.10
2018-08-19T16:15:42.989Z,32.80
2018-08-19T16:18:12.058Z,32.40
2018-08-19T16:20:44.071Z,32.20
2018-08-19T16:23:13.525Z,32.00
2018-08-19T16:25:43.481Z,31.90
2018-08-19T16:28:14.588Z,31.70
2018-08-19T16:30:43.274Z,31.60
2018-08-19T16:33:12.326Z,31.60
2018-08-19T16:35:43.197Z,31.20
2018-08-19T16:38:13.363Z,30.50
2018-08-19T16:40:42.065Z,30.70
2018-08-19T16:43:10.689Z,30.60
2018-08-19T16:45:39.558Z,30.60
2018-08-19T16:48:08.525Z,30.50
2018-08-19T16:50:38.521Z,30.40
2018-08-19T16:53:08.118Z,30.20
2018-08-19T16:55:37.073Z,30.10
2018-08-19T16:58:08.612Z,30.10
2018-08-19T17:00:37.465Z,30.00
2018-08-19T17:03:21.539Z,29.90
2018-08-19T17:05:50.822Z,29.90
2018-08-19T17:08:19.401Z,29.70
2018-08-19T17:10:48.016Z,29.40
2018-08-19T17:13:17.653Z,29.30
2018-08-19T17:15:46.879Z,29.20
2018-08-19T17:18:15.738Z,29.00
2018-08-19T17:20:44.375Z,29.00
2018-08-19T17:23:16.374Z,28.90
2018-08-19T17:25:49.420Z,28.80
2018-08-19T17:28:21.025Z,28.70
2018-08-19T17:30:54.108Z,28.50
2018-08-19T17:33:30.703Z,28.50
2018-08-19T17:36:00.339Z,28.40
2018-08-19T17:38:32.944Z,28.30
2018-08-19T17:41:02.170Z,28.20
2018-08-19T17:43:37.682Z,28.20
2018-08-19T17:46:10.563Z,28.10
2018-08-19T17:48:40.402Z,28.00
2018-08-19T17:51:21.789Z,27.90
2018-08-19T17:53:50.538Z,27.80
2018-08-19T17:56:24.751Z,27.80
2018-08-19T17:58:53.687Z,27.70
2018-08-19T18:01:24.934Z,27.60
2018-08-19T18:03:57.418Z,27.50
2018-08-19T18:06:26.945Z,27.30
2018-08-19T18:08:55.992Z,27.10
2018-08-19T18:11:25.732Z,27.00
2018-08-19T18:13:54.543Z,26.90
2018-08-19T18:16:24.095Z,26.70
2018-08-19T18:18:53.189Z,26.70
2018-08-19T18:21:21.733Z,26.60
2018-08-19T18:23:50.347Z,26.50
2018-08-19T18:26:18.892Z,26.40
2018-08-19T18:28:48.632Z,26.40
2018-08-19T18:31:20.263Z,26.30
2018-08-19T18:33:55.892Z,26.30
2018-08-19T18:36:25.672Z,26.10
2018-08-19T18:38:54.286Z,25.90
2018-08-19T18:41:28.513Z,25.70
2018-08-19T18:43:59.077Z,25.60
2018-08-19T18:46:28.121Z,25.50
2018-08-19T18:49:13.380Z,25.30
2018-08-19T18:51:45.573Z,25.30
2018-08-19T18:54:20.721Z,25.30
2018-08-19T18:56:53.877Z,25.20
2018-08-19T18:59:22.472Z,25.20
2018-08-19T19:01:51.010Z,25.10
2018-08-19T19:04:19.597Z,25.10
2018-08-19T19:06:48.234Z,25.00
2018-08-19T19:09:18.397Z,25.00
2018-08-19T19:11:49.251Z,24.90
2018-08-19T19:14:18.586Z,24.80
2018-08-19T19:16:54.265Z,24.80
2018-08-19T19:19:22.776Z,24.80
2018-08-19T19:21:57.950Z,24.70
2018-08-19T19:24:30.812Z,24.60
2018-08-19T19:26:59.341Z,24.50
2018-08-19T19:29:28.890Z,24.50
2018-08-19T19:31:58.520Z,24.40
2018-08-19T19:34:31.162Z,24.30
2018-08-19T19:37:00.353Z,24.20
2018-08-19T19:39:29.648Z,24.10
2018-08-19T19:42:04.129Z,24.10
2018-08-19T19:44:36.197Z,24.10
2018-08-19T19:47:05.561Z,24.00
2018-08-19T19:49:37.436Z,23.90
2018-08-19T19:52:05.948Z,23.90
2018-08-19T19:54:34.818Z,23.80
2018-08-19T19:57:03.494Z,23.80
2018-08-19T19:59:34.267Z,23.70
2018-08-19T20:02:03.041Z,23.70
2018-08-19T20:04:35.231Z,23.60
2018-08-19T20:07:03.902Z,23.60
2018-08-19T20:09:35.487Z,23.50
2018-08-19T20:12:05.111Z,23.40
2018-08-19T20:14:37.838Z,23.40
2018-08-19T20:17:06.377Z,23.40
2018-08-19T20:19:34.912Z,23.30
2018-08-19T20:22:04.273Z,23.20
2018-08-19T20:24:32.821Z,23.20
2018-08-19T20:27:01.377Z,23.10
2018-08-19T20:29:29.929Z,23.00
2018-08-19T20:31:58.560Z,23.00
2018-08-19T20:34:27.662Z,22.90
2018-08-19T20:36:56.222Z,22.90
2018-08-19T20:39:24.756Z,22.90
2018-08-19T20:41:53.296Z,22.80
2018-08-19T20:44:22.755Z,22.70
2018-08-19T20:46:55.789Z,22.70
2018-08-19T20:49:25.680Z,22.60
2018-08-19T20:51:55.889Z,22.50
2018-08-19T20:54:25.382Z,22.40
2018-08-19T20:56:54.052Z,22.40
2018-08-19T20:59:26.785Z,22.40
2018-08-19T21:01:56.023Z,22.30
2018-08-19T21:04:24.534Z,22.20
2018-08-19T21:06:53.248Z,22.20
2018-08-19T21:09:21.872Z,22.10
2018-08-19T21:11:51.125Z,22.10
2018-08-19T21:14:19.794Z,22.00
2018-08-19T21:16:50.172Z,22.00
2018-08-19T21:19:18.823Z,21.90
2018-08-19T21:21:47.401Z,21.90
2018-08-19T21:24:15.933Z,21.80
2018-08-19T21:26:48.805Z,21.80
2018-08-19T21:29:17.317Z,21.70
2018-08-19T21:31:45.859Z,21.70
2018-08-19T21:34:14.478Z,21.60
2018-08-19T21:36:42.997Z,21.50
2018-08-19T21:39:11.995Z,21.40
2018-08-19T21:41:51.307Z,21.30
2018-08-19T21:44:20.301Z,21.30
2018-08-19T21:46:49.043Z,21.20
2018-08-19T21:49:17.661Z,21.20
2018-08-19T21:51:46.241Z,21.10
2018-08-19T21:54:15.884Z,21.10
2018-08-19T21:56:45.144Z,21.00
2018-08-19T21:59:29.396Z,21.00
2018-08-19T22:01:59.353Z,21.00
2018-08-19T22:04:29.810Z,20.90
2018-08-19T22:06:59.259Z,20.90
2018-08-19T22:09:34.028Z,20.80
2018-08-19T22:12:03.383Z,20.70
2018-08-19T22:14:32.659Z,20.70
2018-08-19T22:17:06.584Z,20.70
2018-08-19T22:19:35.120Z,20.70
2018-08-19T22:22:03.747Z,20.60
2018-08-19T22:24:32.328Z,20.50
2018-08-19T22:27:06.163Z,20.50
2018-08-19T22:29:35.577Z,20.50
2018-08-19T22:32:04.116Z,20.40
2018-08-19T22:34:32.701Z,20.30
2018-08-19T22:37:01.561Z,20.30
2018-08-19T22:39:30.225Z,20.20
2018-08-19T22:41:58.756Z,20.20
2018-08-19T22:44:27.338Z,20.10
2018-08-19T22:46:55.889Z,20.10
2018-08-19T22:49:27.377Z,20.10
2018-08-19T22:52:01.451Z,20.00
2018-08-19T22:54:30.578Z,20.00
2018-08-19T22:56:59.121Z,19.90
2018-08-19T22:59:27.715Z,19.90
2018-08-19T23:01:56.236Z,19.90
2018-08-19T23:04:24.761Z,19.90
2018-08-19T23:06:53.813Z,19.90
2018-08-19T23:09:22.321Z,19.80
2018-08-19T23:11:58.986Z,19.70
2018-08-19T23:14:39.234Z,19.70
2018-08-19T23:17:08.628Z,19.70
2018-08-19T23:19:38.089Z,19.60
2018-08-19T23:22:07.306Z,19.60
2018-08-19T23:24:36.022Z,19.50
2018-08-19T23:27:04.673Z,19.50
2018-08-19T23:29:33.208Z,19.40
2018-08-19T23:32:01.851Z,19.30
2018-08-19T23:34:30.400Z,19.20
2018-08-19T23:36:58.921Z,19.20
2018-08-19T23:39:28.421Z,19.20
2018-08-19T23:41:58.045Z,19.20
2018-08-19T23:44:26.581Z,19.10
2018-08-19T23:46:55.116Z,19.10
2018-08-19T23:49:23.677Z,19.10
2018-08-19T23:51:52.240Z,19.00
2018-08-19T23:54:20.771Z,19.00
2018-08-19T23:56:49.312Z,18.90
2018-08-19T23:59:23.193Z,18.90
